createdAt,value
2018-04-15T00:01:24.072Z,27.58
2018-04-15T00:03:50.907Z,30.55
2018-04-15T00:06:17.757Z,33.40
2018-04-15T00:08:45.390Z,30.75
2018-04-15T00:11:12.155Z,31.30
2018-04-15T00:13:39.001Z,32.65
2018-04-15T00:16:05.839Z,33.70
2018-04-15T00:18:32.687Z,30.17
2018-04-15T00:20:59.502Z,29.98
2018-04-15T00:23:26.269Z,33.88
2018-04-15T00:25:53.214Z,30.80
2018-04-15T00:28:20.057Z,32.10
2018-04-15T00:30:47.226Z,32.63
2018-04-15T00:33:14.049Z,32.60
2018-04-15T00:35:40.991Z,30.30
2018-04-15T00:38:08.347Z,31.70
2018-04-15T00:40:35.196Z,32.35
2018-04-15T00:43:01.869Z,31.75
2018-04-15T00:45:30.103Z,31.02
2018-04-15T00:47:56.945Z,32.30
2018-04-15T00:50:23.886Z,33.95
2018-04-15T00:52:50.728Z,31.48
2018-04-15T00:55:17.570Z,35.05
2018-04-15T00:57:44.325Z,35.30
2018-04-15T01:00:11.972Z,33.17
2018-04-15T01:02:38.818Z,33.45
2018-04-15T01:05:05.661Z,35.95
2018-04-15T01:07:32.366Z,33.50
2018-04-15T01:09:59.119Z,34.22
2018-04-15T01:12:26.187Z,36.47
2018-04-15T01:14:53.848Z,38.22
2018-04-15T01:17:20.547Z,37.17
2018-04-15T01:19:47.534Z,36.60
2018-04-15T01:22:14.377Z,36.63
2018-04-15T01:24:41.319Z,36.97
2018-04-15T01:27:08.052Z,37.23
2018-04-15T01:29:34.899Z,38.80
2018-04-15T01:32:01.746Z,41.08
2018-04-15T01:34:28.485Z,38.65
2018-04-15T01:36:55.634Z,38.43
2018-04-15T01:39:22.477Z,39.33
2018-04-15T01:41:49.137Z,39.27
2018-04-15T01:44:15.952Z,37.73
2018-04-15T01:46:42.691Z,40.23
2018-04-15T01:49:09.538Z,41.30
2018-04-15T01:51:36.380Z,40.93
2018-04-15T01:54:03.224Z,40.23
2018-04-15T01:56:29.935Z,41.83
2018-04-15T01:58:56.705Z,42.57
2018-04-15T02:01:23.374Z,42.43
2018-04-15T02:03:50.286Z,41.10
2018-04-15T02:06:17.331Z,40.77
2018-04-15T02:08:44.073Z,40.43
2018-04-15T02:11:10.701Z,40.93
2018-04-15T02:13:37.554Z,39.93
2018-04-15T02:16:04.396Z,42.70
2018-04-15T02:18:31.072Z,39.90
2018-04-15T02:20:57.873Z,41.33
2018-04-15T02:23:24.697Z,40.90
2018-04-15T02:25:51.325Z,40.90
2018-04-15T02:28:18.692Z,40.90
2018-04-15T02:30:45.552Z,41.53
2018-04-15T02:33:12.394Z,40.23
2018-04-15T02:35:39.236Z,40.80
2018-04-15T02:38:06.282Z,41.10
2018-04-15T02:40:33.125Z,37.90
2018-04-15T02:43:00.069Z,40.50
2018-04-15T02:45:26.910Z,41.07
2018-04-15T02:47:53.530Z,38.80
2018-04-15T02:50:20.285Z,40.10
2018-04-15T02:52:47.234Z,42.10
2018-04-15T02:55:13.974Z,41.50
2018-04-15T02:57:40.709Z,40.77
2018-04-15T03:00:07.559Z,43.10
2018-04-15T03:02:34.401Z,41.87
2018-04-15T03:05:01.134Z,39.27
2018-04-15T03:07:28.082Z,41.07
2018-04-15T03:09:56.246Z,40.53
2018-04-15T03:12:22.995Z,40.43
2018-04-15T03:14:49.839Z,40.03
2018-04-15T03:17:16.574Z,41.90
2018-04-15T03:19:43.523Z,40.13
2018-04-15T03:22:10.258Z,39.20
2018-04-15T03:24:37.004Z,41.83
2018-04-15T03:27:04.356Z,38.90
2018-04-15T03:29:31.013Z,41.00
2018-04-15T03:31:57.835Z,40.27
2018-04-15T03:34:24.674Z,38.47
2018-04-15T03:36:51.520Z,40.33
2018-04-15T03:39:18.363Z,37.83
2018-04-15T03:41:45.207Z,38.53
2018-04-15T03:44:11.910Z,38.03
2018-04-15T03:46:39.396Z,37.90
2018-04-15T03:49:06.345Z,37.97
2018-04-15T03:51:33.086Z,35.93
2018-04-15T03:53:59.928Z,37.00
2018-04-15T03:56:26.873Z,39.63
2018-04-15T03:58:53.613Z,37.70
2018-04-15T04:01:20.355Z,36.87
2018-04-15T04:03:47.092Z,35.53
2018-04-15T04:06:14.177Z,40.53
2018-04-15T04:08:40.982Z,38.80
2018-04-15T04:11:07.710Z,36.50
2018-04-15T04:13:34.534Z,36.57
2018-04-15T04:16:01.227Z,37.60
2018-04-15T04:18:40.172Z,37.53
2018-04-15T04:21:19.156Z,35.60
2018-04-15T04:26:49.253Z,36.00
2018-04-15T04:29:16.751Z,35.53
2018-04-15T04:31:43.402Z,37.80
2018-04-15T04:34:10.232Z,34.63
2018-04-15T04:36:36.971Z,39.13
2018-04-15T04:39:03.814Z,36.50
2018-04-15T04:41:30.758Z,35.50
2018-04-15T04:43:57.600Z,37.90
2018-04-15T04:46:24.345Z,35.73
2018-04-15T04:48:51.078Z,36.63
2018-04-15T04:51:17.820Z,37.80
2018-04-15T04:53:44.480Z,35.83
2018-04-15T04:56:11.197Z,36.43
2018-04-15T04:58:38.036Z,36.60
2018-04-15T05:01:04.778Z,37.17
2018-04-15T05:03:31.515Z,38.63
2018-04-15T05:05:58.256Z,37.03
2018-04-15T05:08:25.001Z,36.57
2018-04-15T05:10:51.719Z,37.90
2018-04-15T05:13:18.479Z,38.93
2018-04-15T05:15:45.180Z,37.53
2018-04-15T05:18:12.671Z,37.80
2018-04-15T05:20:39.619Z,37.17
2018-04-15T05:23:06.334Z,40.23
2018-04-15T05:25:34.023Z,38.47
2018-04-15T05:28:00.764Z,38.13
2018-04-15T05:30:27.604Z,38.93
2018-04-15T05:32:54.343Z,36.37
2018-04-15T05:35:20.977Z,36.60
2018-04-15T05:37:48.130Z,37.03
2018-04-15T05:40:14.871Z,36.57
2018-04-15T05:42:41.713Z,37.73
2018-04-15T05:45:08.393Z,37.13
2018-04-15T05:47:35.193Z,36.33
2018-04-15T05:50:02.249Z,37.30
2018-04-15T05:52:29.082Z,38.63
2018-04-15T05:54:55.822Z,37.53
2018-04-15T05:57:22.869Z,35.37
2018-04-15T05:59:49.492Z,36.10
2018-04-15T06:02:16.247Z,35.10
2018-04-15T06:04:43.089Z,36.90
2018-04-15T06:07:09.748Z,36.73
2018-04-15T06:09:36.568Z,36.33
2018-04-15T06:12:03.714Z,37.17
2018-04-15T06:14:30.449Z,37.67
2018-04-15T06:16:57.198Z,36.27
2018-04-15T06:19:24.253Z,35.37
2018-04-15T06:21:50.985Z,37.17
2018-04-15T06:24:17.656Z,37.73
2018-04-15T06:26:44.775Z,35.27
2018-04-15T06:29:11.512Z,39.77
2018-04-15T06:31:38.222Z,38.70
2018-04-15T06:34:04.990Z,40.27
2018-04-15T06:36:31.731Z,37.80
2018-04-15T06:38:58.401Z,40.40
2018-04-15T06:41:25.076Z,41.77
2018-04-15T06:43:52.769Z,40.33
2018-04-15T06:46:19.509Z,40.50
2018-04-15T06:48:46.249Z,38.77
2018-04-15T06:51:13.086Z,39.70
2018-04-15T06:53:39.712Z,40.77
2018-04-15T06:56:06.669Z,39.03
2018-04-15T06:58:33.409Z,37.73
2018-04-15T07:01:00.044Z,39.67
2018-04-15T07:03:26.730Z,38.70
2018-04-15T07:05:54.246Z,38.77
2018-04-15T07:08:20.938Z,38.90
2018-04-15T07:10:47.724Z,38.30
2018-04-15T07:13:14.440Z,33.87
2018-04-15T07:15:41.926Z,39.63
2018-04-15T07:18:08.669Z,38.57
2018-04-15T07:20:35.609Z,39.37
2018-04-15T07:23:02.348Z,37.43
2018-04-15T07:25:29.087Z,40.27
2018-04-15T07:27:55.794Z,39.97
2018-04-15T07:30:23.237Z,40.83
2018-04-15T07:32:50.020Z,40.90
2018-04-15T07:35:16.760Z,41.23
2018-04-15T07:37:43.433Z,39.50
2018-04-15T07:40:10.078Z,39.80
2018-04-15T07:42:36.983Z,41.37
2018-04-15T07:45:03.885Z,42.87
2018-04-15T07:47:30.672Z,41.73
2018-04-15T07:49:57.339Z,43.03
2018-04-15T07:52:25.582Z,43.00
2018-04-15T07:54:52.322Z,41.83
2018-04-15T07:57:19.056Z,43.17
2018-04-15T07:59:45.904Z,43.87
2018-04-15T08:02:12.643Z,46.60
2018-04-15T08:04:39.345Z,51.67
2018-04-15T08:07:06.329Z,49.97
2018-04-15T08:09:33.065Z,46.73
2018-04-15T08:11:59.708Z,47.10
2018-04-15T08:14:26.340Z,46.23
2018-04-15T08:16:53.083Z,45.23
2018-04-15T08:19:19.827Z,45.13
2018-04-15T08:21:46.976Z,44.97
2018-04-15T08:24:13.600Z,44.67
2018-04-15T08:26:40.257Z,42.53
2018-04-15T08:29:06.987Z,42.47
2018-04-15T08:31:33.632Z,45.27
2018-04-15T08:34:00.275Z,46.17
2018-04-15T08:36:26.933Z,44.13
2018-04-15T08:38:53.629Z,47.10
2018-04-15T08:41:20.267Z,44.67
2018-04-15T08:43:47.017Z,42.73
2018-04-15T08:46:13.859Z,41.47
2018-04-15T08:48:40.492Z,43.13
2018-04-15T08:51:07.237Z,45.83
2018-04-15T08:53:33.974Z,47.33
2018-04-15T08:56:00.917Z,45.27
2018-04-15T08:58:27.662Z,45.10
2018-04-15T09:00:54.329Z,40.47
2018-04-15T09:03:21.858Z,40.43
2018-04-15T09:05:48.801Z,41.70
2018-04-15T09:08:15.544Z,39.20
2018-04-15T09:10:42.279Z,36.63
2018-04-15T09:13:09.021Z,39.37
2018-04-15T09:15:35.753Z,38.53
2018-04-15T09:18:02.705Z,38.20
2018-04-15T09:20:29.443Z,35.20
2018-04-15T09:22:56.134Z,38.27
2018-04-15T09:25:22.997Z,36.00
2018-04-15T09:27:50.484Z,38.53
2018-04-15T09:30:17.221Z,37.07
2018-04-15T09:32:44.373Z,36.03
2018-04-15T09:35:11.217Z,35.03
2018-04-15T09:37:37.916Z,33.30
2018-04-15T09:40:04.901Z,33.27
2018-04-15T09:42:31.637Z,32.40
2018-04-15T09:44:58.412Z,32.00
2018-04-15T09:47:25.536Z,30.93
2018-04-15T09:49:52.269Z,29.93
2018-04-15T09:52:19.114Z,29.17
2018-04-15T09:54:46.261Z,29.50
2018-04-15T09:57:12.996Z,28.90
2018-04-15T09:59:39.626Z,27.70
2018-04-15T10:02:06.448Z,26.93
2018-04-15T10:04:33.929Z,28.27
2018-04-15T10:07:00.677Z,27.10
2018-04-15T10:09:27.332Z,25.20
2018-04-15T10:11:54.232Z,26.63
2018-04-15T10:14:21.601Z,24.00
2018-04-15T10:16:48.456Z,26.50
2018-04-15T10:19:15.260Z,25.83
2018-04-15T10:21:42.749Z,25.47
2018-04-15T10:24:09.723Z,27.00
2018-04-15T10:26:36.440Z,25.87
2018-04-15T10:29:03.060Z,24.57
2018-04-15T10:31:30.636Z,26.47
2018-04-15T10:33:57.286Z,26.53
2018-04-15T10:36:24.113Z,26.30
2018-04-15T10:38:50.763Z,27.33
2018-04-15T10:41:17.701Z,25.00
2018-04-15T10:43:46.692Z,26.73
2018-04-15T10:46:13.406Z,27.17
2018-04-15T10:48:40.053Z,26.77
2018-04-15T10:51:07.426Z,25.83
2018-04-15T10:53:34.267Z,26.60
2018-04-15T10:56:00.897Z,27.93
2018-04-15T10:58:27.953Z,26.30
2018-04-15T11:00:54.789Z,28.30
2018-04-15T11:03:21.635Z,25.63
2018-04-15T11:05:49.612Z,27.50
2018-04-15T11:08:16.345Z,26.70
2018-04-15T11:10:43.058Z,23.30
2018-04-15T11:13:10.745Z,25.80
2018-04-15T11:15:37.485Z,24.83
2018-04-15T11:18:04.152Z,23.00
2018-04-15T11:20:30.966Z,22.60
2018-04-15T11:22:57.645Z,20.03
2018-04-15T11:25:24.445Z,20.47
2018-04-15T11:27:51.188Z,19.67
2018-04-15T11:30:17.856Z,17.63
2018-04-15T11:32:44.768Z,18.50
2018-04-15T11:35:11.442Z,17.90
2018-04-15T11:37:38.877Z,17.30
2018-04-15T11:40:05.559Z,16.80
2018-04-15T11:42:32.950Z,17.07
2018-04-15T11:44:59.646Z,17.07
2018-04-15T11:47:26.500Z,17.27
2018-04-15T11:49:53.953Z,16.73
2018-04-15T11:52:21.451Z,16.10
2018-04-15T11:54:48.186Z,16.00
2018-04-15T11:57:15.342Z,15.77
2018-04-15T11:59:42.080Z,13.67
2018-04-15T12:02:08.773Z,15.20
2018-04-15T12:04:35.764Z,15.23
2018-04-15T12:07:02.504Z,14.50
2018-04-15T12:09:29.347Z,14.67
2018-04-15T12:11:56.058Z,13.73
2018-04-15T12:14:23.456Z,14.57
2018-04-15T12:16:50.278Z,13.97
2018-04-15T12:19:16.945Z,13.20
2018-04-15T12:21:43.653Z,13.43
2018-04-15T12:24:10.401Z,13.07
2018-04-15T12:26:37.068Z,13.40
2018-04-15T12:29:03.711Z,12.77
2018-04-15T12:31:30.519Z,11.57
2018-04-15T12:33:57.372Z,12.00
2018-04-15T12:36:24.097Z,11.77
2018-04-15T12:38:50.840Z,11.17
2018-04-15T12:41:17.581Z,11.10
2018-04-15T12:43:44.424Z,12.17
2018-04-15T12:46:11.066Z,12.37
2018-04-15T12:48:37.903Z,12.27
2018-04-15T12:51:04.741Z,12.80
2018-04-15T12:53:31.698Z,11.37
2018-04-15T12:55:58.430Z,11.67
2018-04-15T12:58:25.089Z,11.70
2018-04-15T13:00:51.805Z,10.90
2018-04-15T13:03:18.851Z,10.83
2018-04-15T13:05:45.594Z,11.40
2018-04-15T13:08:12.334Z,10.87
2018-04-15T13:10:39.586Z,10.27
2018-04-15T13:13:06.434Z,10.17
2018-04-15T13:15:33.389Z,10.77
2018-04-15T13:18:00.080Z,9.87
2018-04-15T13:20:26.852Z,10.03
2018-04-15T13:22:53.560Z,10.40
2018-04-15T13:25:21.151Z,9.50
2018-04-15T13:27:47.891Z,10.07
2018-04-15T13:30:14.840Z,9.57
2018-04-15T13:32:41.571Z,10.83
2018-04-15T13:35:08.737Z,10.83
2018-04-15T13:37:35.466Z,10.07
2018-04-15T13:40:02.553Z,11.43
2018-04-15T13:42:29.354Z,10.27
2018-04-15T13:44:56.298Z,11.43
2018-04-15T13:47:23.213Z,11.80
2018-04-15T13:49:50.905Z,11.73
2018-04-15T13:52:17.618Z,11.50
2018-04-15T13:54:45.205Z,11.27
2018-04-15T13:57:11.945Z,12.73
2018-04-15T13:59:39.090Z,11.87
2018-04-15T14:02:05.831Z,11.50
2018-04-15T14:04:32.567Z,11.77
2018-04-15T14:06:59.308Z,11.27
2018-04-15T14:09:26.054Z,10.40
2018-04-15T14:11:52.786Z,11.20
2018-04-15T14:14:19.527Z,11.53
2018-04-15T14:16:46.375Z,12.07
2018-04-15T14:19:13.289Z,11.83
2018-04-15T14:21:40.771Z,12.23
2018-04-15T14:24:07.509Z,11.13
2018-04-15T14:26:34.170Z,11.47
2018-04-15T14:29:00.893Z,11.90
2018-04-15T14:31:27.573Z,11.47
2018-04-15T14:33:54.236Z,11.07
2018-04-15T14:36:21.846Z,11.57
2018-04-15T14:38:48.571Z,10.80
2018-04-15T14:41:15.306Z,10.87
2018-04-15T14:43:42.066Z,11.63
2018-04-15T14:46:08.726Z,11.23
2018-04-15T14:48:36.146Z,11.90
2018-04-15T14:51:03.089Z,13.27
2018-04-15T14:53:29.833Z,12.77
2018-04-15T14:55:56.448Z,12.73
2018-04-15T14:58:23.201Z,13.30
2018-04-15T15:00:50.151Z,13.43
2018-04-15T15:03:16.994Z,13.40
2018-04-15T15:05:43.836Z,13.87
2018-04-15T15:08:10.518Z,12.70
2018-04-15T15:10:37.311Z,13.13
2018-04-15T15:13:04.056Z,13.87
2018-04-15T15:15:30.694Z,12.70
2018-04-15T15:17:57.535Z,13.43
2018-04-15T15:20:24.110Z,12.33
2018-04-15T15:22:51.630Z,12.93
2018-04-15T15:25:18.284Z,13.30
2018-04-15T15:27:44.893Z,12.43
2018-04-15T15:30:11.474Z,12.53
2018-04-15T15:32:38.854Z,13.97
2018-04-15T15:35:05.534Z,11.63
2018-04-15T15:37:32.268Z,11.63
2018-04-15T15:39:58.852Z,12.87
2018-04-15T15:42:25.556Z,12.20
2018-04-15T15:44:52.388Z,13.33
2018-04-15T15:47:19.171Z,13.27
2018-04-15T15:49:46.471Z,13.30
2018-04-15T15:52:13.426Z,13.27
2018-04-15T15:54:40.175Z,11.87
2018-04-15T15:57:06.812Z,13.33
2018-04-15T15:59:33.546Z,12.93
2018-04-15T16:02:01.208Z,10.90
2018-04-15T16:04:27.814Z,12.50
2018-04-15T16:06:54.483Z,11.80
2018-04-15T16:09:21.064Z,11.33
2018-04-15T16:11:48.473Z,11.47
2018-04-15T16:14:15.215Z,11.60
2018-04-15T16:16:42.741Z,11.13
2018-04-15T16:19:09.410Z,11.40
2018-04-15T16:21:35.989Z,12.07
2018-04-15T16:24:02.678Z,11.10
2018-04-15T16:26:29.426Z,11.73
2018-04-15T16:28:56.060Z,12.27
2018-04-15T16:31:22.795Z,11.37
2018-04-15T16:33:49.440Z,11.63
2018-04-15T16:36:16.177Z,11.40
2018-04-15T16:38:43.023Z,11.83
2018-04-15T16:41:09.917Z,12.30
2018-04-15T16:43:36.574Z,12.57
2018-04-15T16:46:03.346Z,12.43
2018-04-15T16:48:29.984Z,11.80
2018-04-15T16:50:56.694Z,12.17
2018-04-15T16:53:23.357Z,11.53
2018-04-15T16:55:49.991Z,11.70
2018-04-15T16:58:16.556Z,11.90
2018-04-15T17:00:43.985Z,12.60
2018-04-15T17:03:10.823Z,12.50
2018-04-15T17:05:37.384Z,12.20
2018-04-15T17:08:04.107Z,13.57
2018-04-15T17:10:30.846Z,13.83
2018-04-15T17:12:57.790Z,14.00
2018-04-15T17:15:24.530Z,12.53
2018-04-15T17:17:51.266Z,13.67
2018-04-15T17:20:18.009Z,14.40
2018-04-15T17:22:44.746Z,14.73
2018-04-15T17:25:11.313Z,15.23
2018-04-15T17:27:38.677Z,15.73
2018-04-15T17:30:08.295Z,14.27
2018-04-15T17:32:34.958Z,15.57
2018-04-15T17:35:01.727Z,15.90
2018-04-15T17:37:28.465Z,16.07
2018-04-15T17:39:55.260Z,16.93
2018-04-15T17:42:21.917Z,14.90
2018-04-15T17:44:48.580Z,16.47
2018-04-15T17:47:15.165Z,16.03
2018-04-15T17:49:41.859Z,16.40
2018-04-15T17:52:08.601Z,15.63
2018-04-15T17:54:35.339Z,17.03
2018-04-15T17:57:01.904Z,17.80
2018-04-15T17:59:29.326Z,18.43
2018-04-15T18:01:56.021Z,16.77
2018-04-15T18:04:22.914Z,17.37
2018-04-15T18:06:49.549Z,17.17
2018-04-15T18:09:16.291Z,17.23
2018-04-15T18:11:43.952Z,17.60
2018-04-15T18:14:10.691Z,16.70
2018-04-15T18:16:37.534Z,16.50
2018-04-15T18:19:04.376Z,17.10
2018-04-15T18:21:31.172Z,20.27
2018-04-15T18:23:57.851Z,19.17
2018-04-15T18:26:24.698Z,19.67
2018-04-15T18:28:51.289Z,18.30
2018-04-15T18:31:17.864Z,17.83
2018-04-15T18:33:45.018Z,19.13
2018-04-15T18:36:11.581Z,16.83
2018-04-15T18:38:38.265Z,18.13
2018-04-15T18:41:05.036Z,19.20
2018-04-15T18:43:31.746Z,19.33
2018-04-15T18:45:58.382Z,18.40
2018-04-15T18:48:24.984Z,19.70
2018-04-15T18:50:52.509Z,18.97
2018-04-15T18:53:19.248Z,20.17
2018-04-15T18:55:46.096Z,18.67
2018-04-15T18:58:14.366Z,20.47
2018-04-15T19:00:41.096Z,19.20
2018-04-15T19:03:07.664Z,18.83
2018-04-15T19:05:34.266Z,20.43
2018-04-15T19:08:00.825Z,18.97
2018-04-15T19:10:27.656Z,20.80
2018-04-15T19:12:55.830Z,19.47
2018-04-15T19:15:22.671Z,20.93
2018-04-15T19:17:49.279Z,20.70
2018-04-15T19:20:16.049Z,20.57
2018-04-15T19:22:42.789Z,20.23
2018-04-15T19:25:09.428Z,20.87
2018-04-15T19:27:36.001Z,21.03
2018-04-15T19:30:03.472Z,20.10
2018-04-15T19:32:30.363Z,22.17
2018-04-15T19:34:56.933Z,20.97
2018-04-15T19:37:24.232Z,21.07
2018-04-15T19:39:50.885Z,23.67
2018-04-15T19:42:17.466Z,22.80
2018-04-15T19:44:44.579Z,22.67
2018-04-15T19:47:11.312Z,22.13
2018-04-15T19:49:38.161Z,23.80
2018-04-15T19:52:04.963Z,23.83
2018-04-15T19:54:31.632Z,24.17
2018-04-15T19:56:58.213Z,22.33
2018-04-15T19:59:25.831Z,22.47
2018-04-15T20:01:52.540Z,26.60
2018-04-15T20:04:19.273Z,22.87
2018-04-15T20:06:46.667Z,24.57
2018-04-15T20:09:13.406Z,22.73
2018-04-15T20:11:40.245Z,23.10
2018-04-15T20:14:07.007Z,22.53
2018-04-15T20:16:34.447Z,24.07
2018-04-15T20:19:01.187Z,23.90
2018-04-15T20:21:27.813Z,27.43
2018-04-15T20:23:54.497Z,27.50
2018-04-15T20:26:21.060Z,26.40
2018-04-15T20:28:47.735Z,25.83
2018-04-15T20:31:14.679Z,23.80
2018-04-15T20:33:41.421Z,23.60
2018-04-15T20:36:08.128Z,27.47
2018-04-15T20:38:34.902Z,24.33
2018-04-15T20:41:01.644Z,27.83
2018-04-15T20:43:28.394Z,26.27
2018-04-15T20:45:55.823Z,27.23
2018-04-15T20:48:22.437Z,29.00
2018-04-15T20:50:49.081Z,25.90
2018-04-15T20:53:15.852Z,25.47
2018-04-15T20:55:42.431Z,26.10
2018-04-15T20:58:09.090Z,25.53
2018-04-15T21:00:35.721Z,26.03
2018-04-15T21:03:02.522Z,25.60
2018-04-15T21:05:29.158Z,24.73
2018-04-15T21:07:55.850Z,26.60
2018-04-15T21:10:23.843Z,28.73
2018-04-15T21:12:50.489Z,26.37
2018-04-15T21:15:17.097Z,27.13
2018-04-15T21:17:44.169Z,26.20
2018-04-15T21:20:10.805Z,27.33
2018-04-15T21:22:37.410Z,26.57
2018-04-15T21:25:04.985Z,25.97
2018-04-15T21:27:31.651Z,26.67
2018-04-15T21:29:58.233Z,26.83
2018-04-15T21:32:24.829Z,28.60
2018-04-15T21:34:51.556Z,27.90
2018-04-15T21:37:18.172Z,31.33
2018-04-15T21:39:44.770Z,30.67
2018-04-15T21:42:11.673Z,30.70
2018-04-15T21:44:38.413Z,25.80
2018-04-15T21:47:05.152Z,29.30
2018-04-15T21:49:31.746Z,28.37
2018-04-15T21:51:58.431Z,27.03
2018-04-15T21:54:25.269Z,26.03
2018-04-15T21:56:52.316Z,28.07
2018-04-15T21:59:18.943Z,27.20
2018-04-15T22:01:45.591Z,27.63
2018-04-15T22:04:12.241Z,30.37
2018-04-15T22:06:38.966Z,31.20
2018-04-15T22:09:06.393Z,29.30
2018-04-15T22:11:45.537Z,31.97
2018-04-15T22:14:12.296Z,29.73
2018-04-15T22:16:39.037Z,29.93
2018-04-15T22:19:07.314Z,28.40
2018-04-15T22:21:33.952Z,29.70
2018-04-15T22:24:00.684Z,30.80
2018-04-15T22:26:27.535Z,31.63
2018-04-15T22:28:55.709Z,29.60
2018-04-15T22:31:22.651Z,30.30
2018-04-15T22:33:49.390Z,29.93
2018-04-15T22:36:16.130Z,29.30
2018-04-15T22:38:42.753Z,31.67
2018-04-15T22:41:09.509Z,29.73
2018-04-15T22:43:36.653Z,28.73
2018-04-15T22:46:03.259Z,29.10
2018-04-15T22:48:36.076Z,27.07
2018-04-15T22:51:04.247Z,28.80
2018-04-15T22:53:30.890Z,31.40
2018-04-15T22:55:57.733Z,29.57
2018-04-15T22:58:24.470Z,29.13
2018-04-15T23:00:51.414Z,29.77
2018-04-15T23:03:18.153Z,29.63
2018-04-15T23:05:44.800Z,32.70
2018-04-15T23:08:11.650Z,32.40
2018-04-15T23:10:38.476Z,32.97
2018-04-15T23:13:05.184Z,33.80
2018-04-15T23:15:32.878Z,29.47
2018-04-15T23:17:59.720Z,32.20
2018-04-15T23:20:26.562Z,32.63
2018-04-15T23:22:53.501Z,32.73
2018-04-15T23:25:20.146Z,31.50
2018-04-15T23:27:46.854Z,30.50
2018-04-15T23:30:14.274Z,31.87
2018-04-15T23:32:41.081Z,32.23
2018-04-15T23:35:08.025Z,28.23
2018-04-15T23:37:34.817Z,29.40
2018-04-15T23:40:02.321Z,28.03
2018-04-15T23:42:29.168Z,28.60
2018-04-15T23:44:56.017Z,30.70
2018-04-15T23:47:22.660Z,32.87
2018-04-15T23:49:49.490Z,33.43
2018-04-15T23:52:16.434Z,32.63
2018-04-15T23:54:43.245Z,29.83
2018-04-15T23:57:10.690Z,32.47
2018-04-15T23:59:38.285Z,33.93
